createdAt,value
2022-09-23T00:02:20.868Z,7.45
2022-09-23T00:04:49.531Z,7.44
2022-09-23T00:07:19.459Z,7.40
2022-09-23T00:09:47.996Z,7.37
2022-09-23T00:12:17.094Z,7.38
2022-09-23T00:14:45.596Z,7.39
2022-09-23T00:17:14.179Z,7.39
2022-09-23T00:19:43.020Z,7.39
2022-09-23T00:22:12.251Z,7.40
2022-09-23T00:24:42.312Z,7.37
2022-09-23T00:27:10.846Z,7.36
2022-09-23T00:29:39.366Z,7.34
2022-09-23T00:32:07.997Z,7.32
2022-09-23T00:34:36.795Z,7.32
2022-09-23T00:37:05.586Z,7.32
2022-09-23T00:39:34.120Z,7.30
2022-09-23T00:42:04.089Z,7.29
2022-09-23T00:44:48.357Z,7.27
2022-09-23T00:47:24.881Z,7.21
2022-09-23T00:50:01.848Z,7.18
2022-09-23T00:52:32.639Z,7.14
2022-09-23T00:55:06.659Z,7.13
2022-09-23T00:57:38.024Z,7.11
2022-09-23T01:00:08.684Z,7.06
2022-09-23T01:02:39.572Z,7.05
2022-09-23T01:05:09.864Z,7.02
2022-09-23T01:07:38.479Z,7.02
2022-09-23T01:10:09.155Z,7.00
2022-09-23T01:12:55.346Z,6.98
2022-09-23T01:15:31.358Z,6.94
2022-09-23T01:18:07.770Z,6.92
2022-09-23T01:21:03.152Z,6.92
2022-09-23T01:24:26.891Z,6.90
2022-09-23T01:27:06.680Z,6.88
2022-09-23T01:30:15.254Z,6.86
2022-09-23T01:33:04.702Z,6.87
2022-09-23T01:35:47.711Z,6.86
2022-09-23T01:38:26.483Z,6.84
2022-09-23T01:41:04.605Z,6.84
2022-09-23T01:43:41.589Z,6.84
2022-09-23T01:46:17.701Z,6.84
2022-09-23T01:48:53.104Z,6.83
2022-09-23T01:51:26.490Z,6.84
2022-09-23T01:54:01.730Z,6.85
2022-09-23T01:56:35.329Z,6.84
2022-09-23T01:59:13.445Z,6.83
2022-09-23T02:01:48.431Z,6.83
2022-09-23T02:04:23.853Z,6.80
2022-09-23T02:06:58.649Z,6.78
2022-09-23T02:09:32.912Z,6.75
2022-09-23T02:12:06.816Z,6.71
2022-09-23T02:14:43.755Z,6.70
2022-09-23T02:17:16.939Z,6.68
2022-09-23T02:19:50.101Z,6.65
2022-09-23T02:22:24.034Z,6.62
2022-09-23T02:24:54.777Z,6.63
2022-09-23T02:27:30.633Z,6.57
2022-09-23T02:30:08.941Z,6.55
2022-09-23T02:32:49.254Z,6.51
2022-09-23T02:35:26.678Z,6.48
2022-09-23T02:38:03.815Z,6.48
2022-09-23T02:40:38.146Z,6.45
2022-09-23T02:43:10.331Z,6.42
2022-09-23T02:45:39.161Z,6.39
2022-09-23T02:48:13.117Z,6.37
2022-09-23T02:50:43.503Z,6.32
2022-09-23T02:53:12.211Z,6.30
2022-09-23T02:55:44.208Z,6.28
2022-09-23T02:58:14.563Z,6.26
2022-09-23T03:00:57.404Z,6.25
2022-09-23T03:03:40.523Z,6.22
2022-09-23T03:06:26.151Z,6.19
2022-09-23T03:09:02.974Z,6.20
2022-09-23T03:11:33.051Z,6.21
2022-09-23T03:14:17.552Z,6.21
2022-09-23T03:16:51.930Z,6.18
2022-09-23T03:19:28.705Z,6.17
2022-09-23T03:22:05.433Z,6.15
2022-09-23T03:24:37.095Z,6.12
2022-09-23T03:27:11.860Z,6.11
2022-09-23T03:29:42.430Z,6.11
2022-09-23T03:32:11.210Z,6.10
2022-09-23T03:34:44.114Z,6.11
2022-09-23T03:37:19.649Z,6.08
2022-09-23T03:39:53.838Z,6.06
2022-09-23T03:42:25.821Z,6.05
2022-09-23T03:44:56.509Z,6.03
2022-09-23T03:47:26.996Z,6.02
2022-09-23T03:49:56.862Z,5.99
2022-09-23T03:52:27.818Z,5.97
2022-09-23T03:54:56.324Z,5.95
2022-09-23T03:57:25.780Z,5.93
2022-09-23T03:59:54.531Z,5.91
2022-09-23T04:02:23.166Z,5.92
2022-09-23T04:04:52.119Z,5.91
2022-09-23T04:07:20.777Z,5.91
2022-09-23T04:09:50.891Z,5.89
2022-09-23T04:12:19.544Z,5.89
2022-09-23T04:14:48.301Z,5.89
2022-09-23T04:17:17.471Z,5.90
2022-09-23T04:19:46.175Z,5.89
2022-09-23T04:22:14.836Z,5.90
2022-09-23T04:24:43.575Z,5.88
2022-09-23T04:27:13.462Z,5.88
2022-09-23T04:29:42.019Z,5.88
2022-09-23T04:32:10.541Z,5.85
2022-09-23T04:34:39.137Z,5.86
2022-09-23T04:37:07.745Z,5.82
2022-09-23T04:39:36.273Z,5.81
2022-09-23T04:42:05.047Z,5.79
2022-09-23T04:44:35.273Z,5.82
2022-09-23T04:47:04.384Z,5.80
2022-09-23T04:49:33.761Z,5.77
2022-09-23T04:52:02.865Z,5.76
2022-09-23T04:54:31.384Z,5.71
2022-09-23T04:57:00.105Z,5.71
2022-09-23T04:59:28.778Z,5.65
2022-09-23T05:01:58.880Z,5.65
2022-09-23T05:04:27.568Z,5.65
2022-09-23T05:06:59.504Z,5.61
2022-09-23T05:09:31.500Z,5.61
2022-09-23T05:12:00.647Z,5.60
2022-09-23T05:14:29.167Z,5.61
2022-09-23T05:16:59.130Z,5.59
2022-09-23T05:19:27.757Z,5.62
2022-09-23T05:21:56.290Z,5.64
2022-09-23T05:24:25.456Z,5.68
2022-09-23T05:26:54.232Z,5.72
2022-09-23T05:29:22.797Z,5.73
2022-09-23T05:31:51.498Z,5.73
2022-09-23T05:34:21.472Z,5.74
2022-09-23T05:36:49.973Z,5.73
2022-09-23T05:39:18.529Z,5.77
2022-09-23T05:41:47.148Z,5.78
2022-09-23T05:44:15.775Z,5.78
2022-09-23T05:46:44.640Z,5.82
2022-09-23T05:49:13.681Z,5.85
2022-09-23T05:51:43.639Z,5.89
2022-09-23T05:54:12.399Z,5.94
2022-09-23T05:56:40.966Z,5.99
2022-09-23T05:59:09.650Z,6.04
2022-09-23T06:01:38.655Z,6.09
2022-09-23T06:04:09.246Z,6.10
2022-09-23T06:06:41.609Z,6.12
2022-09-23T06:09:13.969Z,6.15
2022-09-23T06:11:43.220Z,6.17
2022-09-23T06:14:14.715Z,6.21
2022-09-23T06:16:44.174Z,6.23
2022-09-23T06:19:12.738Z,6.28
2022-09-23T06:21:41.657Z,6.33
2022-09-23T06:24:16.267Z,6.36
2022-09-23T06:26:45.516Z,6.40
2022-09-23T06:29:14.588Z,6.44
2022-09-23T06:31:43.472Z,6.49
2022-09-23T06:34:14.604Z,6.53
2022-09-23T06:36:45.447Z,6.59
2022-09-23T06:39:16.108Z,6.66
2022-09-23T06:41:45.237Z,6.73
2022-09-23T06:44:14.144Z,6.83
2022-09-23T06:46:42.921Z,6.90
2022-09-23T06:49:13.365Z,6.96
2022-09-23T06:51:42.500Z,7.03
2022-09-23T06:54:11.349Z,7.11
2022-09-23T06:56:41.379Z,7.18
2022-09-23T06:59:13.044Z,7.25
2022-09-23T07:01:41.919Z,7.35
2022-09-23T07:04:11.328Z,7.42
2022-09-23T07:06:39.867Z,7.50
2022-09-23T07:09:09.233Z,7.58
2022-09-23T07:11:37.829Z,7.67
2022-09-23T07:14:07.872Z,7.75
2022-09-23T07:16:36.360Z,7.84
2022-09-23T07:19:05.122Z,7.94
2022-09-23T07:21:34.003Z,8.02
2022-09-23T07:24:02.928Z,8.09
2022-09-23T07:26:34.035Z,8.17
2022-09-23T07:29:05.151Z,8.27
2022-09-23T07:31:39.552Z,8.35
2022-09-23T07:34:11.765Z,8.44
2022-09-23T07:36:41.705Z,8.53
2022-09-23T07:39:12.135Z,8.64
2022-09-23T07:41:41.748Z,8.80
2022-09-23T07:44:11.880Z,8.90
2022-09-23T07:46:42.071Z,9.00
2022-09-23T07:49:10.915Z,9.08
2022-09-23T07:51:41.922Z,9.19
2022-09-23T07:54:13.505Z,9.32
2022-09-23T07:56:43.225Z,9.44
2022-09-23T07:59:17.140Z,9.58
2022-09-23T08:01:49.114Z,9.69
2022-09-23T08:04:20.155Z,9.81
2022-09-23T08:06:50.693Z,9.90
2022-09-23T08:09:21.020Z,10.04
2022-09-23T08:11:50.746Z,10.12
2022-09-23T08:14:19.462Z,10.21
2022-09-23T08:16:49.851Z,10.30
2022-09-23T08:19:18.631Z,10.39
2022-09-23T08:21:47.830Z,10.47
2022-09-23T08:24:18.778Z,10.58
2022-09-23T08:26:48.459Z,10.67
2022-09-23T08:29:18.760Z,10.74
2022-09-23T08:31:47.808Z,10.84
2022-09-23T08:34:17.779Z,10.94
2022-09-23T08:36:46.656Z,11.04
2022-09-23T08:39:16.835Z,11.14
2022-09-23T08:41:58.763Z,11.21
2022-09-23T08:44:33.666Z,11.31
2022-09-23T08:47:10.387Z,11.40
2022-09-23T08:49:47.437Z,11.50
2022-09-23T08:52:25.605Z,11.60
2022-09-23T08:54:55.547Z,11.68
2022-09-23T08:57:39.569Z,11.78
2022-09-23T09:00:19.742Z,11.86
2022-09-23T09:02:49.877Z,11.97
2022-09-23T09:05:27.022Z,12.09
2022-09-23T09:07:59.864Z,12.17
2022-09-23T09:10:35.246Z,12.23
2022-09-23T09:13:07.599Z,12.32
2022-09-23T09:15:44.230Z,12.41
2022-09-23T09:18:20.883Z,12.50
2022-09-23T09:20:59.063Z,12.60
2022-09-23T09:23:34.287Z,12.69
2022-09-23T09:26:03.987Z,12.77
2022-09-23T09:28:40.223Z,12.84
2022-09-23T09:31:24.868Z,12.94
2022-09-23T09:33:58.064Z,13.00
2022-09-23T09:36:37.177Z,13.05
2022-09-23T09:39:06.796Z,13.14
2022-09-23T09:41:35.442Z,13.22
2022-09-23T09:44:18.426Z,13.30
2022-09-23T09:47:03.906Z,13.37
2022-09-23T09:49:41.683Z,13.43
2022-09-23T09:52:20.776Z,13.51
2022-09-23T09:54:52.620Z,13.57
2022-09-23T09:57:39.702Z,13.67
2022-09-23T10:00:36.331Z,13.89
2022-09-23T10:03:20.800Z,13.98
2022-09-23T10:05:52.398Z,14.08
2022-09-23T10:08:28.927Z,14.21
2022-09-23T10:11:03.617Z,14.36
2022-09-23T10:13:33.079Z,14.48
2022-09-23T10:16:04.053Z,14.56
2022-09-23T10:18:37.764Z,14.71
2022-09-23T10:21:14.352Z,14.98
2022-09-23T10:23:47.167Z,15.21
2022-09-23T10:26:18.614Z,15.44
2022-09-23T10:28:50.494Z,15.87
2022-09-23T10:31:25.806Z,16.22
2022-09-23T10:33:57.371Z,16.45
2022-09-23T10:36:26.051Z,16.62
2022-09-23T10:39:19.800Z,17.06
2022-09-23T10:42:17.397Z,17.31
2022-09-23T10:45:16.812Z,17.92
2022-09-23T10:47:56.341Z,17.84
2022-09-23T10:50:42.536Z,18.06
2022-09-23T10:53:20.179Z,18.01
2022-09-23T10:56:05.912Z,17.86
2022-09-23T10:58:59.373Z,17.78
2022-09-23T11:01:39.531Z,17.61
2022-09-23T11:04:27.016Z,17.57
2022-09-23T11:07:11.277Z,17.38
2022-09-23T11:09:53.744Z,17.42
2022-09-23T11:12:37.045Z,17.62
2022-09-23T11:15:27.723Z,17.88
2022-09-23T11:18:21.144Z,18.02
2022-09-23T11:21:02.253Z,17.77
2022-09-23T11:23:56.990Z,17.68
2022-09-23T11:26:33.290Z,17.61
2022-09-23T11:29:31.160Z,17.95
2022-09-23T11:32:16.429Z,18.08
2022-09-23T11:35:02.744Z,17.95
2022-09-23T11:37:36.111Z,18.11
2022-09-23T11:40:23.318Z,18.03
2022-09-23T11:42:58.130Z,17.96
2022-09-23T11:45:35.898Z,18.08
2022-09-23T11:48:08.553Z,18.49
2022-09-23T11:50:53.067Z,18.77
2022-09-23T11:53:34.692Z,19.18
2022-09-23T11:56:08.764Z,19.16
2022-09-23T11:58:42.045Z,19.35
2022-09-23T12:01:30.072Z,19.23
2022-09-23T12:04:18.878Z,19.18
2022-09-23T12:06:55.573Z,19.08
2022-09-23T12:09:56.518Z,19.48
2022-09-23T12:12:27.279Z,18.97
2022-09-23T12:15:03.926Z,18.86
2022-09-23T12:17:52.895Z,19.30
2022-09-23T12:20:43.551Z,19.33
2022-09-23T12:23:26.673Z,19.68
2022-09-23T12:26:04.843Z,19.96
2022-09-23T12:28:40.664Z,19.97
2022-09-23T12:31:12.650Z,19.90
2022-09-23T12:33:53.856Z,20.09
2022-09-23T12:36:41.371Z,19.91
2022-09-23T12:39:18.829Z,19.63
2022-09-23T12:41:51.573Z,19.71
2022-09-23T12:44:36.879Z,19.93
2022-09-23T12:47:42.502Z,19.74
2022-09-23T12:50:53.216Z,19.86
2022-09-23T12:53:57.159Z,19.90
2022-09-23T12:56:29.853Z,20.01
2022-09-23T12:59:14.646Z,19.85
2022-09-23T13:01:44.074Z,19.72
2022-09-23T13:04:50.071Z,19.57
2022-09-23T13:07:26.255Z,19.62
2022-09-23T13:10:02.310Z,19.69
2022-09-23T13:12:36.641Z,19.89
2022-09-23T13:15:13.432Z,19.81
2022-09-23T13:17:42.135Z,19.43
2022-09-23T13:20:38.638Z,19.48
2022-09-23T13:23:23.173Z,19.75
2022-09-23T13:25:54.248Z,19.47
2022-09-23T13:28:30.279Z,19.23
2022-09-23T13:30:59.738Z,18.97
2022-09-23T13:33:35.677Z,18.68
2022-09-23T13:36:11.257Z,18.63
2022-09-23T13:38:42.294Z,18.29
2022-09-23T13:41:16.622Z,17.95
2022-09-23T13:44:26.504Z,17.81
2022-09-23T13:47:02.257Z,17.89
2022-09-23T13:49:42.822Z,18.02
2022-09-23T13:52:25.471Z,18.02
2022-09-23T13:54:55.709Z,18.02
2022-09-23T13:57:29.612Z,17.92
2022-09-23T14:00:02.633Z,17.89
2022-09-23T14:02:31.332Z,17.83
2022-09-23T14:05:01.205Z,17.73
2022-09-23T14:07:33.852Z,17.55
2022-09-23T14:10:08.100Z,17.52
2022-09-23T14:12:40.293Z,17.41
2022-09-23T14:15:15.020Z,17.33
2022-09-23T14:17:47.671Z,17.35
2022-09-23T14:20:17.426Z,17.23
2022-09-23T14:22:46.407Z,17.12
2022-09-23T14:25:19.177Z,17.18
2022-09-23T14:27:47.881Z,17.24
2022-09-23T14:30:18.945Z,17.29
2022-09-23T14:32:49.038Z,17.34
2022-09-23T14:35:21.780Z,17.47
2022-09-23T14:38:13.068Z,17.46
2022-09-23T14:40:54.693Z,17.40
2022-09-23T14:43:26.704Z,17.37
2022-09-23T14:45:58.312Z,17.29
2022-09-23T14:48:29.681Z,17.15
2022-09-23T14:51:00.246Z,17.01
2022-09-23T14:53:34.711Z,16.97
2022-09-23T14:56:14.198Z,16.81
2022-09-23T14:58:51.024Z,16.75
2022-09-23T15:01:39.965Z,16.64
2022-09-23T15:04:15.651Z,16.61
2022-09-23T15:06:50.605Z,16.54
2022-09-23T15:09:24.395Z,16.54
2022-09-23T15:12:04.562Z,16.54
2022-09-23T15:14:39.793Z,16.52
2022-09-23T15:17:26.521Z,16.48
2022-09-23T15:19:58.436Z,16.48
2022-09-23T15:22:27.396Z,16.45
2022-09-23T15:25:09.945Z,16.46
2022-09-23T15:27:44.662Z,16.47
2022-09-23T15:30:18.921Z,16.45
2022-09-23T15:32:47.962Z,16.43
2022-09-23T15:35:18.791Z,16.41
2022-09-23T15:37:49.664Z,16.36
2022-09-23T15:40:23.755Z,16.33
2022-09-23T15:42:55.493Z,16.30
2022-09-23T15:45:31.127Z,16.27
2022-09-23T15:48:03.328Z,16.22
2022-09-23T15:50:32.388Z,16.18
2022-09-23T15:53:01.000Z,16.16
2022-09-23T15:55:29.526Z,16.11
2022-09-23T15:57:59.711Z,16.08
2022-09-23T16:00:28.855Z,16.02
2022-09-23T16:02:57.590Z,15.97
2022-09-23T16:05:30.877Z,15.95
2022-09-23T16:08:03.710Z,15.87
2022-09-23T16:10:35.150Z,15.79
2022-09-23T16:13:08.145Z,15.69
2022-09-23T16:15:39.065Z,15.61
2022-09-23T16:18:08.569Z,15.54
2022-09-23T16:20:39.015Z,15.46
2022-09-23T16:23:10.260Z,15.36
2022-09-23T16:25:39.139Z,15.28
2022-09-23T16:28:09.180Z,15.18
2022-09-23T16:30:37.907Z,15.15
2022-09-23T16:33:06.513Z,15.08
2022-09-23T16:35:35.157Z,15.05
2022-09-23T16:38:04.288Z,15.02
2022-09-23T16:40:33.185Z,14.99
2022-09-23T16:43:05.043Z,14.91
2022-09-23T16:45:35.064Z,14.87
2022-09-23T16:48:03.885Z,14.81
2022-09-23T16:50:33.523Z,14.74
2022-09-23T16:53:02.148Z,14.70
2022-09-23T16:55:31.357Z,14.64
2022-09-23T16:57:59.937Z,14.57
2022-09-23T17:00:45.575Z,14.49
2022-09-23T17:03:47.865Z,14.41
2022-09-23T17:06:18.101Z,14.29
2022-09-23T17:08:49.435Z,14.22
2022-09-23T17:11:18.347Z,14.16
2022-09-23T17:13:47.624Z,14.07
2022-09-23T17:16:24.466Z,13.97
2022-09-23T17:18:56.562Z,13.88
2022-09-23T17:21:27.042Z,13.79
2022-09-23T17:23:56.228Z,13.71
2022-09-23T17:26:26.330Z,13.63
2022-09-23T17:28:56.758Z,13.55
2022-09-23T17:31:26.454Z,13.47
2022-09-23T17:33:56.676Z,13.39
2022-09-23T17:36:25.384Z,13.33
2022-09-23T17:38:54.515Z,13.26
2022-09-23T17:41:23.426Z,13.19
2022-09-23T17:43:56.734Z,13.14
2022-09-23T17:46:25.448Z,13.08
2022-09-23T17:48:55.730Z,13.02
2022-09-23T17:51:26.826Z,12.95
2022-09-23T17:53:55.355Z,12.87
2022-09-23T17:56:26.031Z,12.83
2022-09-23T17:58:55.092Z,12.77
2022-09-23T18:01:25.739Z,12.71
2022-09-23T18:03:56.084Z,12.66
2022-09-23T18:06:27.492Z,12.62
2022-09-23T18:08:56.485Z,12.58
2022-09-23T18:11:26.947Z,12.55
2022-09-23T18:13:57.003Z,12.49
2022-09-23T18:16:27.685Z,12.48
2022-09-23T18:18:58.390Z,12.46
2022-09-23T18:21:32.422Z,12.45
2022-09-23T18:24:28.124Z,12.45
2022-09-23T18:26:52.961Z,12.44
2022-09-23T18:29:21.916Z,12.43
2022-09-23T18:31:51.256Z,12.42
2022-09-23T18:34:20.340Z,12.42
2022-09-23T18:36:50.874Z,12.43
2022-09-23T18:39:19.660Z,12.43
2022-09-23T18:41:49.632Z,12.43
2022-09-23T18:44:20.094Z,12.41
2022-09-23T18:46:49.041Z,12.42
2022-09-23T18:49:35.287Z,12.40
2022-09-23T18:52:05.841Z,12.35
2022-09-23T18:54:34.510Z,12.32
2022-09-23T18:57:03.184Z,12.29
2022-09-23T18:59:33.603Z,12.24
2022-09-23T19:02:02.488Z,12.17
2022-09-23T19:04:31.727Z,12.13
2022-09-23T19:07:00.295Z,12.10
2022-09-23T19:09:30.595Z,12.05
2022-09-23T19:11:59.136Z,12.03
2022-09-23T19:14:27.927Z,11.99
2022-09-23T19:16:56.477Z,11.95
2022-09-23T19:19:25.008Z,11.91
2022-09-23T19:21:54.876Z,11.87
2022-09-23T19:24:23.607Z,11.85
2022-09-23T19:26:56.403Z,11.82
2022-09-23T19:29:24.972Z,11.79
2022-09-23T19:31:53.536Z,11.78
2022-09-23T19:34:26.091Z,11.76
2022-09-23T19:36:57.502Z,11.74
2022-09-23T19:39:27.627Z,11.72
2022-09-23T19:41:58.759Z,11.69
2022-09-23T19:44:28.052Z,11.67
2022-09-23T19:46:57.576Z,11.63
2022-09-23T19:49:26.615Z,11.60
2022-09-23T19:51:56.646Z,11.56
2022-09-23T19:54:27.300Z,11.55
2022-09-23T19:56:57.649Z,11.52
2022-09-23T19:59:28.244Z,11.50
2022-09-23T20:01:56.858Z,11.48
2022-09-23T20:04:26.191Z,11.45
2022-09-23T20:06:54.793Z,11.43
2022-09-23T20:09:23.787Z,11.39
2022-09-23T20:11:52.295Z,11.39
2022-09-23T20:14:23.430Z,11.36
2022-09-23T20:16:53.141Z,11.33
2022-09-23T20:19:21.782Z,11.30
2022-09-23T20:22:10.961Z,11.30
2022-09-23T20:24:39.467Z,11.31
2022-09-23T20:27:11.199Z,11.28
2022-09-23T20:29:41.179Z,11.31
2022-09-23T20:32:11.380Z,11.29
2022-09-23T20:34:44.150Z,11.28
2022-09-23T20:37:12.697Z,11.29
2022-09-23T20:39:41.250Z,11.29
2022-09-23T20:42:10.180Z,11.26
2022-09-23T20:44:40.111Z,11.23
2022-09-23T20:47:08.874Z,11.22
2022-09-23T20:49:37.900Z,11.22
2022-09-23T20:52:06.422Z,11.17
2022-09-23T20:54:34.919Z,11.15
2022-09-23T20:57:03.696Z,11.15
2022-09-23T20:59:32.291Z,11.12
2022-09-23T21:02:02.525Z,11.12
2022-09-23T21:04:31.812Z,11.11
2022-09-23T21:07:01.127Z,11.11
2022-09-23T21:09:32.021Z,11.11
2022-09-23T21:12:00.559Z,11.11
2022-09-23T21:14:29.067Z,11.10
2022-09-23T21:16:57.659Z,11.10
2022-09-23T21:19:27.962Z,11.09
2022-09-23T21:21:56.557Z,11.07
2022-09-23T21:24:53.510Z,11.06
2022-09-23T21:27:13.696Z,11.08
2022-09-23T21:29:42.254Z,11.05
2022-09-23T21:32:11.448Z,11.06
2022-09-23T21:34:41.408Z,11.06
2022-09-23T21:37:09.922Z,11.05
2022-09-23T21:39:38.451Z,11.03
2022-09-23T21:42:07.108Z,11.01
2022-09-23T21:44:35.763Z,11.00
2022-09-23T21:47:04.290Z,11.01
2022-09-23T21:49:32.828Z,11.01
2022-09-23T21:52:03.226Z,11.00
2022-09-23T21:54:31.829Z,11.02
2022-09-23T21:57:00.530Z,11.01
2022-09-23T21:59:29.064Z,11.00
2022-09-23T22:01:57.587Z,10.99
2022-09-23T22:04:26.587Z,10.99
2022-09-23T22:06:55.176Z,10.97
2022-09-23T22:09:25.160Z,10.97
2022-09-23T22:12:11.259Z,10.95
2022-09-23T22:14:40.134Z,10.92
2022-09-23T22:17:11.471Z,10.92
2022-09-23T22:19:46.674Z,10.90
2022-09-23T22:22:16.194Z,10.90
2022-09-23T22:24:47.328Z,10.89
2022-09-23T22:27:18.370Z,10.88
2022-09-23T22:30:04.626Z,10.85
2022-09-23T22:32:54.954Z,10.84
2022-09-23T22:35:23.773Z,10.81
2022-09-23T22:37:52.314Z,10.83
2022-09-23T22:40:24.235Z,10.84
2022-09-23T22:42:53.092Z,10.83
2022-09-23T22:45:21.657Z,10.81
2022-09-23T22:47:53.306Z,10.82
2022-09-23T22:50:21.820Z,10.79
2022-09-23T22:52:50.462Z,10.78
2022-09-23T22:55:19.034Z,10.79
2022-09-23T22:57:51.604Z,10.77
2022-09-23T23:00:20.590Z,10.78
2022-09-23T23:02:49.320Z,10.76
2022-09-23T23:05:18.042Z,10.76
2022-09-23T23:07:46.727Z,10.75
2022-09-23T23:10:17.219Z,10.72
2022-09-23T23:12:46.963Z,10.69
2022-09-23T23:15:16.887Z,10.70
2022-09-23T23:17:45.435Z,10.68
2022-09-23T23:20:13.935Z,10.68
2022-09-23T23:22:42.440Z,10.66
2022-09-23T23:25:11.219Z,10.64
2022-09-23T23:27:39.753Z,10.64
2022-09-23T23:30:09.829Z,10.61
2022-09-23T23:32:39.721Z,10.57
2022-09-23T23:35:09.168Z,10.57
2022-09-23T23:37:37.712Z,10.55
2022-09-23T23:40:07.261Z,10.52
2022-09-23T23:42:35.868Z,10.48
2022-09-23T23:45:04.802Z,10.47
2022-09-23T23:47:33.393Z,10.45
2022-09-23T23:50:05.405Z,10.42
2022-09-23T23:52:33.943Z,10.38
2022-09-23T23:55:02.997Z,10.35
2022-09-23T23:57:31.485Z,10.32
